sensor_id;sensor_type;location;lat;lon;timestamp;pressure;altitude;pressure_sealevel;temperature;humidity
5812;BME280;2932;52.400;9.558;2023-08-31T00:01:48;100037.41;;;16.10;83.12
5812;BME280;2932;52.400;9.558;2023-08-31T00:04:14;100035.41;;;16.24;82.43
5812;BME280;2932;52.400;9.558;2023-08-31T00:06:43;100043.00;;;15.99;82.42
5812;BME280;2932;52.400;9.558;2023-08-31T00:09:10;100039.78;;;15.90;83.08
5812;BME280;2932;52.400;9.558;2023-08-31T00:11:36;100045.38;;;15.93;83.18
5812;BME280;2932;52.400;9.558;2023-08-31T00:14:02;100047.31;;;15.75;83.33
5812;BME280;2932;52.400;9.558;2023-08-31T00:16:27;100045.69;;;15.63;83.65
5812;BME280;2932;52.400;9.558;2023-08-31T00:18:53;100047.31;;;15.75;83.38
5812;BME280;2932;52.400;9.558;2023-08-31T00:21:20;100046.94;;;15.84;83.44
5812;BME280;2932;52.400;9.558;2023-08-31T00:23:46;100035.78;;;15.80;83.22
5812;BME280;2932;52.400;9.558;2023-08-31T00:26:11;100044.47;;;15.54;83.68
5812;BME280;2932;52.400;9.558;2023-08-31T00:28:36;100030.53;;;15.61;83.68
5812;BME280;2932;52.400;9.558;2023-08-31T00:31:02;100039.25;;;15.49;83.85
5812;BME280;2932;52.400;9.558;2023-08-31T00:33:28;100030.97;;;15.66;83.57
5812;BME280;2932;52.400;9.558;2023-08-31T00:35:54;100038.91;;;15.61;83.05
5812;BME280;2932;52.400;9.558;2023-08-31T00:38:21;100035.38;;;15.75;82.67
5812;BME280;2932;52.400;9.558;2023-08-31T00:40:46;100035.00;;;15.87;82.51
5812;BME280;2932;52.400;9.558;2023-08-31T00:43:15;100034.16;;;15.72;82.22
5812;BME280;2932;52.400;9.558;2023-08-31T00:45:41;100037.31;;;15.60;82.84
5812;BME280;2932;52.400;9.558;2023-08-31T00:48:06;100025.78;;;15.68;82.69
5812;BME280;2932;52.400;9.558;2023-08-31T00:50:32;100033.03;;;15.94;82.41
5812;BME280;2932;52.400;9.558;2023-08-31T00:52:58;100032.16;;;15.73;82.34
5812;BME280;2932;52.400;9.558;2023-08-31T00:55:24;100035.75;;;15.59;83.06
5812;BME280;2932;52.400;9.558;2023-08-31T00:57:49;100031.41;;;15.79;82.74
5812;BME280;2932;52.400;9.558;2023-08-31T01:00:15;100042.19;;;15.98;82.08
5812;BME280;2932;52.400;9.558;2023-08-31T01:03:01;100047.78;;;16.13;81.85
5812;BME280;2932;52.400;9.558;2023-08-31T01:05:40;100045.78;;;15.99;81.14
5812;BME280;2932;52.400;9.558;2023-08-31T01:11:12;100042.91;;;15.63;82.80
5812;BME280;2932;52.400;9.558;2023-08-31T01:13:41;100037.41;;;15.92;82.66
5812;BME280;2932;52.400;9.558;2023-08-31T01:16:08;100048.44;;;15.49;82.96
5812;BME280;2932;52.400;9.558;2023-08-31T01:18:35;100044.41;;;15.43;83.38
5812;BME280;2932;52.400;9.558;2023-08-31T01:21:24;100046.41;;;15.46;83.23
5812;BME280;2932;52.400;9.558;2023-08-31T01:23:54;100042.00;;;15.38;83.21
5812;BME280;2932;52.400;9.558;2023-08-31T01:26:22;100040.91;;;15.64;83.24
5812;BME280;2932;52.400;9.558;2023-08-31T01:28:48;100042.06;;;15.56;82.62
5812;BME280;2932;52.400;9.558;2023-08-31T01:31:14;100042.06;;;15.52;82.85
5812;BME280;2932;52.400;9.558;2023-08-31T01:33:40;100054.03;;;15.53;82.94
5812;BME280;2932;52.400;9.558;2023-08-31T01:36:10;100049.69;;;15.66;82.23
5812;BME280;2932;52.400;9.558;2023-08-31T01:38:39;100059.94;;;15.41;82.67
5812;BME280;2932;52.400;9.558;2023-08-31T01:41:07;100064.81;;;15.58;82.94
5812;BME280;2932;52.400;9.558;2023-08-31T01:43:36;100068.75;;;15.53;82.76
5812;BME280;2932;52.400;9.558;2023-08-31T01:46:02;100063.25;;;15.75;82.27
5812;BME280;2932;52.400;9.558;2023-08-31T01:48:28;100065.63;;;15.69;81.59
5812;BME280;2932;52.400;9.558;2023-08-31T01:50:53;100072.38;;;15.61;82.42
5812;BME280;2932;52.400;9.558;2023-08-31T01:53:18;100073.13;;;15.47;82.50
5812;BME280;2932;52.400;9.558;2023-08-31T01:55:44;100069.13;;;15.45;82.28
5812;BME280;2932;52.400;9.558;2023-08-31T01:58:09;100065.09;;;15.35;82.56
5812;BME280;2932;52.400;9.558;2023-08-31T02:00:34;100069.88;;;15.34;82.70
5812;BME280;2932;52.400;9.558;2023-08-31T02:03:01;100068.63;;;15.25;83.53
5812;BME280;2932;52.400;9.558;2023-08-31T02:05:26;100069.41;;;15.15;83.89
5812;BME280;2932;52.400;9.558;2023-08-31T02:07:52;100078.59;;;15.29;83.29
5812;BME280;2932;52.400;9.558;2023-08-31T02:10:17;100069.41;;;15.25;83.27
5812;BME280;2932;52.400;9.558;2023-08-31T02:12:43;100075.06;;;15.36;82.71
5812;BME280;2932;52.400;9.558;2023-08-31T02:15:08;100070.78;;;15.60;82.44
5812;BME280;2932;52.400;9.558;2023-08-31T02:17:34;100072.00;;;15.70;81.92
5812;BME280;2932;52.400;9.558;2023-08-31T02:20:00;100072.31;;;15.47;81.88
5812;BME280;2932;52.400;9.558;2023-08-31T02:22:27;100076.28;;;15.42;81.98
5812;BME280;2932;52.400;9.558;2023-08-31T02:24:52;100076.78;;;15.58;81.86
5812;BME280;2932;52.400;9.558;2023-08-31T02:27:17;100080.78;;;15.75;81.52
5812;BME280;2932;52.400;9.558;2023-08-31T02:29:43;100084.38;;;15.72;81.34
5812;BME280;2932;52.400;9.558;2023-08-31T02:32:08;100078.75;;;15.58;81.38
5812;BME280;2932;52.400;9.558;2023-08-31T02:34:34;100092.31;;;15.63;81.82
5812;BME280;2932;52.400;9.558;2023-08-31T02:36:59;100087.44;;;15.46;82.06
5812;BME280;2932;52.400;9.558;2023-08-31T02:39:24;100085.91;;;15.55;81.58
5812;BME280;2932;52.400;9.558;2023-08-31T02:41:50;100083.53;;;15.61;81.77
5812;BME280;2932;52.400;9.558;2023-08-31T02:44:15;100078.81;;;15.76;81.59
5812;BME280;2932;52.400;9.558;2023-08-31T02:46:40;100090.53;;;15.30;81.40
5812;BME280;2932;52.400;9.558;2023-08-31T02:49:06;100093.06;;;15.53;81.69
5812;BME280;2932;52.400;9.558;2023-08-31T02:51:31;100097.03;;;15.52;81.41
5812;BME280;2932;52.400;9.558;2023-08-31T02:53:56;100099.88;;;15.66;80.36
5812;BME280;2932;52.400;9.558;2023-08-31T02:56:22;100101.13;;;15.76;80.23
5812;BME280;2932;52.400;9.558;2023-08-31T02:58:47;100104.75;;;15.87;80.01
5812;BME280;2932;52.400;9.558;2023-08-31T03:01:13;100090.41;;;16.06;79.59
5812;BME280;2932;52.400;9.558;2023-08-31T03:03:40;100094.00;;;16.10;79.48
5812;BME280;2932;52.400;9.558;2023-08-31T03:06:06;100094.44;;;16.19;78.80
5812;BME280;2932;52.400;9.558;2023-08-31T03:08:37;100089.25;;;16.28;78.42
5812;BME280;2932;52.400;9.558;2023-08-31T03:11:04;100092.06;;;16.36;78.20
5812;BME280;2932;52.400;9.558;2023-08-31T03:13:31;100084.47;;;16.25;77.79
5812;BME280;2932;52.400;9.558;2023-08-31T03:15:56;100086.44;;;16.11;78.05
5812;BME280;2932;52.400;9.558;2023-08-31T03:18:22;100085.22;;;15.94;79.03
5812;BME280;2932;52.400;9.558;2023-08-31T03:20:48;100089.53;;;15.70;79.90
5812;BME280;2932;52.400;9.558;2023-08-31T03:23:13;100093.50;;;15.58;79.90
5812;BME280;2932;52.400;9.558;2023-08-31T03:25:39;100086.22;;;15.40;80.46
5812;BME280;2932;52.400;9.558;2023-08-31T03:28:04;100086.22;;;15.40;80.88
5812;BME280;2932;52.400;9.558;2023-08-31T03:30:30;100093.75;;;15.32;80.86
5812;BME280;2932;52.400;9.558;2023-08-31T03:32:55;100087.31;;;15.14;81.71
5812;BME280;2932;52.400;9.558;2023-08-31T03:35:20;100099.53;;;14.98;81.99
5812;BME280;2932;52.400;9.558;2023-08-31T03:37:51;100093.28;;;15.23;81.67
5812;BME280;2932;52.400;9.558;2023-08-31T03:40:16;100092.97;;;15.35;81.07
5812;BME280;2932;52.400;9.558;2023-08-31T03:42:42;100089.47;;;15.52;80.67
5812;BME280;2932;52.400;9.558;2023-08-31T03:45:07;100095.88;;;15.56;80.15
5812;BME280;2932;52.400;9.558;2023-08-31T03:47:33;100092.31;;;15.66;79.93
5812;BME280;2932;52.400;9.558;2023-08-31T03:49:58;100097.50;;;15.72;79.66
5812;BME280;2932;52.400;9.558;2023-08-31T03:52:23;100094.75;;;15.75;79.38
5812;BME280;2932;52.400;9.558;2023-08-31T03:54:50;100102.72;;;15.77;79.18
5812;BME280;2932;52.400;9.558;2023-08-31T03:57:16;100104.75;;;16.01;78.48
5812;BME280;2932;52.400;9.558;2023-08-31T03:59:41;100096.00;;;15.95;78.57
5812;BME280;2932;52.400;9.558;2023-08-31T04:02:06;100113.53;;;15.92;78.74
5812;BME280;2932;52.400;9.558;2023-08-31T04:04:32;100104.78;;;16.08;78.33
5812;BME280;2932;52.400;9.558;2023-08-31T04:06:58;100111.47;;;15.75;78.25
5812;BME280;2932;52.400;9.558;2023-08-31T04:09:23;100109.53;;;16.04;78.70
5812;BME280;2932;52.400;9.558;2023-08-31T04:11:48;100118.72;;;15.94;78.19
5812;BME280;2932;52.400;9.558;2023-08-31T04:14:14;100111.50;;;15.86;78.09
5812;BME280;2932;52.400;9.558;2023-08-31T04:16:39;100125.06;;;15.84;78.13
5812;BME280;2932;52.400;9.558;2023-08-31T04:19:04;100129.03;;;15.79;78.51
5812;BME280;2932;52.400;9.558;2023-08-31T04:21:30;100130.19;;;15.75;78.60
5812;BME280;2932;52.400;9.558;2023-08-31T04:23:55;100129.81;;;15.80;78.25
5812;BME280;2932;52.400;9.558;2023-08-31T04:26:20;100136.59;;;15.82;78.13
5812;BME280;2932;52.400;9.558;2023-08-31T04:28:46;100141.72;;;15.66;78.29
5812;BME280;2932;52.400;9.558;2023-08-31T04:31:11;100138.53;;;15.67;78.77
5812;BME280;2932;52.400;9.558;2023-08-31T04:33:37;100142.50;;;15.63;78.89
5812;BME280;2932;52.400;9.558;2023-08-31T04:36:04;100145.72;;;15.68;78.50
5812;BME280;2932;52.400;9.558;2023-08-31T04:38:34;100143.38;;;15.85;78.75
5812;BME280;2932;52.400;9.558;2023-08-31T04:40:59;100138.56;;;15.75;78.44
5812;BME280;2932;52.400;9.558;2023-08-31T04:43:25;100139.00;;;15.80;78.01
5812;BME280;2932;52.400;9.558;2023-08-31T04:45:54;100144.97;;;15.79;77.79
5812;BME280;2932;52.400;9.558;2023-08-31T04:48:19;100137.34;;;15.68;78.11
5812;BME280;2932;52.400;9.558;2023-08-31T04:50:45;100144.94;;;15.75;78.35
5812;BME280;2932;52.400;9.558;2023-08-31T04:53:10;100145.81;;;15.90;78.10
5812;BME280;2932;52.400;9.558;2023-08-31T04:55:35;100149.00;;;15.95;77.83
5812;BME280;2932;52.400;9.558;2023-08-31T04:58:01;100151.00;;;16.02;77.45
5812;BME280;2932;52.400;9.558;2023-08-31T05:00:26;100147.06;;;16.17;76.93
5812;BME280;2932;52.400;9.558;2023-08-31T05:02:51;100154.63;;;16.10;76.98
5812;BME280;2932;52.400;9.558;2023-08-31T05:05:17;100151.06;;;16.23;76.86
5812;BME280;2932;52.400;9.558;2023-08-31T05:07:43;100153.81;;;16.13;77.08
5812;BME280;2932;52.400;9.558;2023-08-31T05:10:09;100154.97;;;16.01;76.96
5812;BME280;2932;52.400;9.558;2023-08-31T05:12:34;100156.56;;;15.88;77.35
5812;BME280;2932;52.400;9.558;2023-08-31T05:15:00;100164.16;;;15.98;77.96
5812;BME280;2932;52.400;9.558;2023-08-31T05:17:25;100162.16;;;15.95;77.74
5812;BME280;2932;52.400;9.558;2023-08-31T05:19:50;100173.63;;;15.72;77.89
5812;BME280;2932;52.400;9.558;2023-08-31T05:22:16;100168.91;;;15.90;77.98
5812;BME280;2932;52.400;9.558;2023-08-31T05:24:42;100169.66;;;15.77;78.80
5812;BME280;2932;52.400;9.558;2023-08-31T05:27:08;100171.25;;;15.74;78.69
5812;BME280;2932;52.400;9.558;2023-08-31T05:29:33;100170.06;;;15.79;78.16
5812;BME280;2932;52.400;9.558;2023-08-31T05:31:58;100174.78;;;15.64;79.06
5812;BME280;2932;52.400;9.558;2023-08-31T05:34:24;100175.59;;;15.72;78.96
5812;BME280;2932;52.400;9.558;2023-08-31T05:36:50;100183.16;;;15.67;79.42
5812;BME280;2932;52.400;9.558;2023-08-31T05:39:15;100174.50;;;15.94;78.65
5812;BME280;2932;52.400;9.558;2023-08-31T05:41:43;100175.16;;;15.62;78.72
5812;BME280;2932;52.400;9.558;2023-08-31T05:44:09;100185.53;;;15.58;79.32
5812;BME280;2932;52.400;9.558;2023-08-31T05:46:35;100185.53;;;15.65;79.21
5812;BME280;2932;52.400;9.558;2023-08-31T05:49:01;100188.53;;;15.35;79.74
5812;BME280;2932;52.400;9.558;2023-08-31T05:51:27;100184.38;;;15.70;79.89
5812;BME280;2932;52.400;9.558;2023-08-31T05:53:52;100186.06;;;15.89;79.13
5812;BME280;2932;52.400;9.558;2023-08-31T05:56:19;100190.44;;;15.90;79.28
5812;BME280;2932;52.400;9.558;2023-08-31T05:58:44;100188.78;;;15.78;79.19
5812;BME280;2932;52.400;9.558;2023-08-31T06:01:10;100192.47;;;16.07;78.87
5812;BME280;2932;52.400;9.558;2023-08-31T06:03:35;100190.09;;;16.13;78.60
5812;BME280;2932;52.400;9.558;2023-08-31T06:06:01;100190.56;;;16.32;77.84
5812;BME280;2932;52.400;9.558;2023-08-31T06:08:27;100196.47;;;16.06;78.97
5812;BME280;2932;52.400;9.558;2023-08-31T06:10:52;100200.81;;;16.00;79.34
5812;BME280;2932;52.400;9.558;2023-08-31T06:13:18;100192.94;;;16.23;78.65
5812;BME280;2932;52.400;9.558;2023-08-31T06:15:43;100195.00;;;16.58;77.43
5812;BME280;2932;52.400;9.558;2023-08-31T06:18:11;100195.84;;;16.66;77.33
5812;BME280;2932;52.400;9.558;2023-08-31T06:20:37;100195.75;;;16.48;77.47
5812;BME280;2932;52.400;9.558;2023-08-31T06:23:02;100204.91;;;16.24;78.33
5812;BME280;2932;52.400;9.558;2023-08-31T06:25:28;100202.13;;;16.31;77.67
5812;BME280;2932;52.400;9.558;2023-08-31T06:27:53;100203.75;;;16.50;77.25
5812;BME280;2932;52.400;9.558;2023-08-31T06:30:19;100195.03;;;16.80;76.57
5812;BME280;2932;52.400;9.558;2023-08-31T06:32:45;100191.41;;;16.61;76.29
5812;BME280;2932;52.400;9.558;2023-08-31T06:35:11;100194.97;;;16.48;76.41
5812;BME280;2932;52.400;9.558;2023-08-31T06:37:40;100196.97;;;16.51;76.75
5812;BME280;2932;52.400;9.558;2023-08-31T06:40:06;100204.94;;;16.42;76.99
5812;BME280;2932;52.400;9.558;2023-08-31T06:42:34;100191.38;;;16.37;76.76
5812;BME280;2932;52.400;9.558;2023-08-31T06:44:59;100207.16;;;15.83;78.88
5812;BME280;2932;52.400;9.558;2023-08-31T06:47:24;100212.00;;;16.04;78.83
5812;BME280;2932;52.400;9.558;2023-08-31T06:49:50;100202.13;;;16.31;78.70
5812;BME280;2932;52.400;9.558;2023-08-31T06:52:16;100201.75;;;16.36;77.71
5812;BME280;2932;52.400;9.558;2023-08-31T06:54:41;100199.75;;;16.37;78.00
5812;BME280;2932;52.400;9.558;2023-08-31T06:57:07;100193.44;;;16.82;77.26
5812;BME280;2932;52.400;9.558;2023-08-31T06:59:32;100210.94;;;16.54;78.05
5812;BME280;2932;52.400;9.558;2023-08-31T07:01:57;100210.53;;;16.49;78.38
5812;BME280;2932;52.400;9.558;2023-08-31T07:04:23;100215.31;;;16.48;77.81
5812;BME280;2932;52.400;9.558;2023-08-31T07:06:48;100208.59;;;16.92;77.23
5812;BME280;2932;52.400;9.558;2023-08-31T07:09:13;100215.28;;;16.41;77.30
5812;BME280;2932;52.400;9.558;2023-08-31T07:11:38;100214.53;;;16.55;78.62
5812;BME280;2932;52.400;9.558;2023-08-31T07:14:04;100209.72;;;16.34;78.29
5812;BME280;2932;52.400;9.558;2023-08-31T07:16:29;100202.94;;;16.31;77.30
5812;BME280;2932;52.400;9.558;2023-08-31T07:18:54;100210.53;;;16.38;77.47
5812;BME280;2932;52.400;9.558;2023-08-31T07:21:20;100213.34;;;16.56;77.75
5812;BME280;2932;52.400;9.558;2023-08-31T07:23:45;100197.44;;;16.71;77.37
5812;BME280;2932;52.400;9.558;2023-08-31T07:26:10;100213.00;;;16.79;76.39
5812;BME280;2932;52.400;9.558;2023-08-31T07:28:36;100196.22;;;16.86;76.00
5812;BME280;2932;52.400;9.558;2023-08-31T07:33:28;100205.00;;;16.66;77.25
5812;BME280;2932;52.400;9.558;2023-08-31T07:35:55;100224.56;;;16.81;76.18
5812;BME280;2932;52.400;9.558;2023-08-31T07:38:20;100206.59;;;16.85;76.05
5812;BME280;2932;52.400;9.558;2023-08-31T07:40:46;100223.28;;;16.46;78.19
5812;BME280;2932;52.400;9.558;2023-08-31T07:43:11;100219.38;;;16.72;77.35
5812;BME280;2932;52.400;9.558;2023-08-31T07:45:37;100225.72;;;16.55;77.13
5812;BME280;2932;52.400;9.558;2023-08-31T07:48:02;100240.91;;;16.64;76.60
5812;BME280;2932;52.400;9.558;2023-08-31T07:50:28;100225.72;;;16.62;77.09
5812;BME280;2932;52.400;9.558;2023-08-31T07:52:53;100232.09;;;16.62;77.44
5812;BME280;2932;52.400;9.558;2023-08-31T07:55:18;100238.81;;;16.26;78.62
5812;BME280;2932;52.400;9.558;2023-08-31T07:57:44;100230.06;;;16.45;78.49
5812;BME280;2932;52.400;9.558;2023-08-31T08:00:09;100247.19;;;16.29;77.94
5812;BME280;2932;52.400;9.558;2023-08-31T08:02:35;100239.28;;;16.56;78.17
5812;BME280;2932;52.400;9.558;2023-08-31T08:05:00;100238.47;;;16.59;77.50
5812;BME280;2932;52.400;9.558;2023-08-31T08:07:25;100228.16;;;16.81;77.26
5812;BME280;2932;52.400;9.558;2023-08-31T08:09:51;100244.50;;;16.65;77.32
5812;BME280;2932;52.400;9.558;2023-08-31T08:12:16;100243.34;;;17.02;75.88
5812;BME280;2932;52.400;9.558;2023-08-31T08:14:41;100246.94;;;16.77;75.37
5812;BME280;2932;52.400;9.558;2023-08-31T08:17:06;100258.50;;;16.76;76.64
5812;BME280;2932;52.400;9.558;2023-08-31T08:19:32;100253.75;;;17.08;76.86
5812;BME280;2932;52.400;9.558;2023-08-31T08:21:57;100259.69;;;16.75;75.53
5812;BME280;2932;52.400;9.558;2023-08-31T08:24:22;100256.53;;;16.97;75.13
5812;BME280;2932;52.400;9.558;2023-08-31T08:26:48;100268.78;;;16.54;76.58
5812;BME280;2932;52.400;9.558;2023-08-31T08:29:13;100265.31;;;16.78;76.05
5812;BME280;2932;52.400;9.558;2023-08-31T08:31:38;100256.13;;;17.17;75.51
5812;BME280;2932;52.400;9.558;2023-08-31T08:34:04;100261.31;;;17.22;74.71
5812;BME280;2932;52.400;9.558;2023-08-31T08:36:29;100260.50;;;16.96;74.54
5812;BME280;2932;52.400;9.558;2023-08-31T08:38:55;100266.47;;;16.81;75.60
5812;BME280;2932;52.400;9.558;2023-08-31T08:41:23;100259.72;;;16.99;75.46
5812;BME280;2932;52.400;9.558;2023-08-31T08:43:50;100254.53;;;17.09;74.12
5812;BME280;2932;52.400;9.558;2023-08-31T08:46:16;100262.50;;;16.78;75.36
5812;BME280;2932;52.400;9.558;2023-08-31T08:48:42;100261.72;;;17.10;73.93
5812;BME280;2932;52.400;9.558;2023-08-31T08:51:10;100256.13;;;17.17;74.42
5812;BME280;2932;52.400;9.558;2023-08-31T08:53:35;100268.09;;;16.92;74.76
5812;BME280;2932;52.400;9.558;2023-08-31T08:56:03;100252.94;;;17.18;74.13
5812;BME280;2932;52.400;9.558;2023-08-31T08:58:29;100253.75;;;17.15;74.14
5812;BME280;2932;52.400;9.558;2023-08-31T09:00:55;100264.13;;;17.08;74.49
5812;BME280;2932;52.400;9.558;2023-08-31T09:03:22;100261.31;;;16.93;74.15
5812;BME280;2932;52.400;9.558;2023-08-31T09:05:49;100252.94;;;17.00;74.31
5812;BME280;2932;52.400;9.558;2023-08-31T09:08:15;100261.31;;;17.40;74.07
5812;BME280;2932;52.400;9.558;2023-08-31T09:10:42;100255.34;;;17.13;73.77
5812;BME280;2932;52.400;9.558;2023-08-31T09:13:15;100263.28;;;17.53;72.37
5812;BME280;2932;52.400;9.558;2023-08-31T09:15:47;100240.09;;;17.67;72.63
5812;BME280;2932;52.400;9.558;2023-08-31T09:18:23;100251.69;;;17.65;72.67
5812;BME280;2932;52.400;9.558;2023-08-31T09:20:49;100242.88;;;17.71;73.27
5812;BME280;2932;52.400;9.558;2023-08-31T09:23:15;100250.88;;;17.61;72.97
5812;BME280;2932;52.400;9.558;2023-08-31T09:25:45;100257.72;;;17.04;73.68
5812;BME280;2932;52.400;9.558;2023-08-31T09:28:14;100260.91;;;16.98;73.49
5812;BME280;2932;52.400;9.558;2023-08-31T09:30:40;100266.50;;;16.98;73.21
5812;BME280;2932;52.400;9.558;2023-08-31T09:33:23;100258.53;;;17.08;73.92
5812;BME280;2932;52.400;9.558;2023-08-31T09:35:56;100253.34;;;17.06;73.64
5812;BME280;2932;52.400;9.558;2023-08-31T09:38:22;100255.31;;;17.02;72.46
5812;BME280;2932;52.400;9.558;2023-08-31T09:40:47;100266.91;;;17.00;73.64
5812;BME280;2932;52.400;9.558;2023-08-31T09:43:20;100252.53;;;17.06;72.88
5812;BME280;2932;52.400;9.558;2023-08-31T09:45:46;100262.53;;;17.07;72.57
5812;BME280;2932;52.400;9.558;2023-08-31T09:48:14;100251.31;;;17.35;72.31
5812;BME280;2932;52.400;9.558;2023-08-31T09:50:43;100257.31;;;17.48;72.31
5812;BME280;2932;52.400;9.558;2023-08-31T09:53:10;100278.50;;;17.03;72.87
5812;BME280;2932;52.400;9.558;2023-08-31T09:55:36;100262.91;;;17.44;72.83
5812;BME280;2932;52.400;9.558;2023-08-31T09:58:06;100245.66;;;17.81;71.93
5812;BME280;2932;52.400;9.558;2023-08-31T10:00:32;100268.75;;;18.03;71.50
5812;BME280;2932;52.400;9.558;2023-08-31T10:03:02;100254.41;;;17.97;70.93
5812;BME280;2932;52.400;9.558;2023-08-31T10:05:28;100246.34;;;18.07;69.80
5812;BME280;2932;52.400;9.558;2023-08-31T10:07:54;100259.31;;;17.47;71.69
5812;BME280;2932;52.400;9.558;2023-08-31T10:10:19;100258.50;;;17.43;71.67
5812;BME280;2932;52.400;9.558;2023-08-31T10:12:48;100256.50;;;17.40;71.23
5812;BME280;2932;52.400;9.558;2023-08-31T10:15:16;100256.06;;;17.81;71.04
5812;BME280;2932;52.400;9.558;2023-08-31T10:17:42;100255.56;;;18.04;69.65
5812;BME280;2932;52.400;9.558;2023-08-31T10:20:09;100247.56;;;18.02;69.51
5812;BME280;2932;52.400;9.558;2023-08-31T10:22:36;100252.41;;;17.94;69.83
5812;BME280;2932;52.400;9.558;2023-08-31T10:25:08;100260.00;;;17.97;69.08
5812;BME280;2932;52.400;9.558;2023-08-31T10:27:42;100242.53;;;18.49;68.41
5812;BME280;2932;52.400;9.558;2023-08-31T10:38:33;100253.13;;;18.89;66.89
5812;BME280;2932;52.400;9.558;2023-08-31T10:43:42;100251.56;;;19.33;65.83
5812;BME280;2932;52.400;9.558;2023-08-31T10:46:35;100248.81;;;19.26;64.89
5812;BME280;2932;52.400;9.558;2023-08-31T10:51:39;100250.44;;;19.23;65.91
5812;BME280;2932;52.400;9.558;2023-08-31T11:07:20;100242.06;;;20.33;62.02
5812;BME280;2932;52.400;9.558;2023-08-31T11:09:48;100251.09;;;20.47;61.76
5812;BME280;2932;52.400;9.558;2023-08-31T11:12:14;100253.03;;;20.20;63.05
5812;BME280;2932;52.400;9.558;2023-08-31T11:14:39;100243.25;;;20.31;62.46
5812;BME280;2932;52.400;9.558;2023-08-31T11:17:05;100240.75;;;20.41;61.31
5812;BME280;2932;52.400;9.558;2023-08-31T11:19:31;100232.81;;;20.62;62.22
5812;BME280;2932;52.400;9.558;2023-08-31T11:21:58;100249.13;;;20.44;62.78
5812;BME280;2932;52.400;9.558;2023-08-31T11:24:25;100245.25;;;20.88;61.93
5812;BME280;2932;52.400;9.558;2023-08-31T11:26:53;100255.53;;;20.75;60.23
5812;BME280;2932;52.400;9.558;2023-08-31T11:29:18;100235.13;;;20.94;60.55
5812;BME280;2932;52.400;9.558;2023-08-31T11:31:44;100240.38;;;20.92;60.54
5812;BME280;2932;52.400;9.558;2023-08-31T11:34:13;100246.75;;;20.43;61.03
5812;BME280;2932;52.400;9.558;2023-08-31T11:36:41;100253.53;;;20.11;62.12
5812;BME280;2932;52.400;9.558;2023-08-31T11:39:08;100254.03;;;20.37;61.32
5812;BME280;2932;52.400;9.558;2023-08-31T11:41:34;100242.84;;;20.63;59.79
5812;BME280;2932;52.400;9.558;2023-08-31T11:44:03;100239.97;;;20.94;58.16
5812;BME280;2932;52.400;9.558;2023-08-31T11:46:28;100250.28;;;21.27;58.01
5812;BME280;2932;52.400;9.558;2023-08-31T11:48:54;100245.41;;;21.75;57.46
5812;BME280;2932;52.400;9.558;2023-08-31T11:51:20;100242.19;;;21.53;58.10
5812;BME280;2932;52.400;9.558;2023-08-31T11:53:46;100236.53;;;21.96;57.83
5812;BME280;2932;52.400;9.558;2023-08-31T11:56:12;100250.09;;;20.88;58.38
5812;BME280;2932;52.400;9.558;2023-08-31T11:58:43;100244.72;;;21.20;58.17
5812;BME280;2932;52.400;9.558;2023-08-31T12:01:17;100242.63;;;21.28;58.40
5812;BME280;2932;52.400;9.558;2023-08-31T12:03:43;100233.78;;;21.73;57.79
5812;BME280;2932;52.400;9.558;2023-08-31T12:06:09;100239.31;;;21.56;57.68
5812;BME280;2932;52.400;9.558;2023-08-31T12:08:36;100253.31;;;21.13;57.70
5812;BME280;2932;52.400;9.558;2023-08-31T12:11:02;100226.72;;;21.84;56.16
5812;BME280;2932;52.400;9.558;2023-08-31T12:13:27;100260.56;;;22.01;56.92
5812;BME280;2932;52.400;9.558;2023-08-31T12:15:57;100244.38;;;21.65;57.01
5812;BME280;2932;52.400;9.558;2023-08-31T12:18:23;100241.91;;;22.10;55.75
5812;BME280;2932;52.400;9.558;2023-08-31T12:20:51;100255.31;;;21.59;56.01
5812;BME280;2932;52.400;9.558;2023-08-31T12:23:18;100232.88;;;22.55;55.24
5812;BME280;2932;52.400;9.558;2023-08-31T12:25:50;100244.25;;;21.92;55.55
5812;BME280;2932;52.400;9.558;2023-08-31T12:28:20;100231.78;;;22.49;54.76
5812;BME280;2932;52.400;9.558;2023-08-31T12:30:50;100225.28;;;23.04;53.97
5812;BME280;2932;52.400;9.558;2023-08-31T12:33:16;100248.63;;;22.88;53.64
5812;BME280;2932;52.400;9.558;2023-08-31T12:35:41;100244.47;;;22.41;54.48
5812;BME280;2932;52.400;9.558;2023-08-31T12:38:06;100229.69;;;22.89;54.03
5812;BME280;2932;52.400;9.558;2023-08-31T12:40:32;100236.91;;;23.22;54.36
5812;BME280;2932;52.400;9.558;2023-08-31T12:42:57;100247.50;;;23.02;54.17
5812;BME280;2932;52.400;9.558;2023-08-31T12:45:22;100248.78;;;22.81;54.57
5812;BME280;2932;52.400;9.558;2023-08-31T12:47:48;100236.44;;;23.40;53.87
5812;BME280;2932;52.400;9.558;2023-08-31T12:50:13;100241.06;;;23.02;54.36
5812;BME280;2932;52.400;9.558;2023-08-31T12:52:38;100254.69;;;22.15;55.97
5812;BME280;2932;52.400;9.558;2023-08-31T12:55:10;100253.38;;;22.39;56.38
5812;BME280;2932;52.400;9.558;2023-08-31T12:57:38;100255.84;;;22.17;56.90
5812;BME280;2932;52.400;9.558;2023-08-31T13:00:03;100283.44;;;22.06;56.37
5812;BME280;2932;52.400;9.558;2023-08-31T13:02:34;100253.88;;;21.94;57.33
5812;BME280;2932;52.400;9.558;2023-08-31T13:04:59;100266.53;;;22.06;58.22
5812;BME280;2932;52.400;9.558;2023-08-31T13:07:25;100270.28;;;21.56;58.55
5812;BME280;2932;52.400;9.558;2023-08-31T13:09:50;100262.47;;;21.44;59.24
5812;BME280;2932;52.400;9.558;2023-08-31T13:12:15;100271.25;;;21.23;59.32
5812;BME280;2932;52.400;9.558;2023-08-31T13:14:43;100289.53;;;21.11;59.60
5812;BME280;2932;52.400;9.558;2023-08-31T13:17:09;100282.84;;;21.02;59.94
5812;BME280;2932;52.400;9.558;2023-08-31T13:19:34;100297.22;;;20.50;60.68
5812;BME280;2932;52.400;9.558;2023-08-31T13:21:59;100273.75;;;20.33;61.28
5812;BME280;2932;52.400;9.558;2023-08-31T13:24:25;100272.66;;;20.23;60.68
5812;BME280;2932;52.400;9.558;2023-08-31T13:26:50;100287.88;;;20.26;60.88
5812;BME280;2932;52.400;9.558;2023-08-31T13:29:15;100306.75;;;19.91;62.12
5812;BME280;2932;52.400;9.558;2023-08-31T13:31:41;100321.34;;;19.24;64.16
5812;BME280;2932;52.400;9.558;2023-08-31T13:34:07;100314.50;;;18.77;63.84
5812;BME280;2932;52.400;9.558;2023-08-31T13:36:33;100333.91;;;18.25;66.94
5812;BME280;2932;52.400;9.558;2023-08-31T13:38:59;100360.00;;;17.47;71.84